sensor_id;sensor_type;location;lat;lon;timestamp;temperature;humidity
25192;DHT22;13143;50.924;5.320;2024-01-15T00:02:17;2.90;99.90
25192;DHT22;13143;50.924;5.320;2024-01-15T00:04:43;2.90;99.90
25192;DHT22;13143;50.924;5.320;2024-01-15T00:07:09;2.90;99.90
25192;DHT22;13143;50.924;5.320;2024-01-15T00:09:35;2.90;99.90
25192;DHT22;13143;50.924;5.320;2024-01-15T00:12:01;2.90;99.90
25192;DHT22;13143;50.924;5.320;2024-01-15T00:14:28;2.90;99.90
25192;DHT22;13143;50.924;5.320;2024-01-15T00:16:54;2.90;99.90
25192;DHT22;13143;50.924;5.320;2024-01-15T00:19:23;2.90;99.90
25192;DHT22;13143;50.924;5.320;2024-01-15T00:21:49;2.90;99.90
25192;DHT22;13143;50.924;5.320;2024-01-15T00:24:15;2.90;99.90
25192;DHT22;13143;50.924;5.320;2024-01-15T00:26:41;2.90;99.90
25192;DHT22;13143;50.924;5.320;2024-01-15T00:29:08;2.90;99.90
25192;DHT22;13143;50.924;5.320;2024-01-15T00:31:35;2.90;99.90
25192;DHT22;13143;50.924;5.320;2024-01-15T00:34:01;2.90;99.90
25192;DHT22;13143;50.924;5.320;2024-01-15T00:36:27;2.90;99.90
25192;DHT22;13143;50.924;5.320;2024-01-15T00:38:53;3.00;99.90
25192;DHT22;13143;50.924;5.320;2024-01-15T00:41:19;3.00;99.90
25192;DHT22;13143;50.924;5.320;2024-01-15T00:43:48;3.00;99.90
25192;DHT22;13143;50.924;5.320;2024-01-15T00:46:16;3.00;99.90
25192;DHT22;13143;50.924;5.320;2024-01-15T00:48:42;2.90;99.90
25192;DHT22;13143;50.924;5.320;2024-01-15T00:51:08;2.90;99.90
25192;DHT22;13143;50.924;5.320;2024-01-15T00:53:34;3.00;99.90
25192;DHT22;13143;50.924;5.320;2024-01-15T00:56:00;3.00;99.90
25192;DHT22;13143;50.924;5.320;2024-01-15T00:58:26;3.00;99.90
25192;DHT22;13143;50.924;5.320;2024-01-15T01:00:52;3.00;99.90
25192;DHT22;13143;50.924;5.320;2024-01-15T01:03:18;3.00;99.90
25192;DHT22;13143;50.924;5.320;2024-01-15T01:05:44;3.00;99.90
25192;DHT22;13143;50.924;5.320;2024-01-15T01:08:10;3.00;99.90
25192;DHT22;13143;50.924;5.320;2024-01-15T01:10:36;3.00;99.90
25192;DHT22;13143;50.924;5.320;2024-01-15T01:13:01;3.00;99.90
25192;DHT22;13143;50.924;5.320;2024-01-15T01:15:27;3.00;99.90
25192;DHT22;13143;50.924;5.320;2024-01-15T01:17:53;3.00;99.90
25192;DHT22;13143;50.924;5.320;2024-01-15T01:20:19;3.00;99.90
25192;DHT22;13143;50.924;5.320;2024-01-15T01:22:44;3.00;99.90
25192;DHT22;13143;50.924;5.320;2024-01-15T01:25:10;3.00;99.90
25192;DHT22;13143;50.924;5.320;2024-01-15T01:27:36;3.00;99.90
25192;DHT22;13143;50.924;5.320;2024-01-15T01:30:01;3.00;99.90
25192;DHT22;13143;50.924;5.320;2024-01-15T01:32:27;3.00;99.90
25192;DHT22;13143;50.924;5.320;2024-01-15T01:34:53;3.00;99.90
25192;DHT22;13143;50.924;5.320;2024-01-15T01:37:19;3.00;99.90
25192;DHT22;13143;50.924;5.320;2024-01-15T01:39:45;3.00;99.90
25192;DHT22;13143;50.924;5.320;2024-01-15T01:42:11;3.00;99.90
25192;DHT22;13143;50.924;5.320;2024-01-15T01:44:37;3.00;99.90
25192;DHT22;13143;50.924;5.320;2024-01-15T01:47:04;3.00;99.90
25192;DHT22;13143;50.924;5.320;2024-01-15T01:49:30;3.00;99.90
25192;DHT22;13143;50.924;5.320;2024-01-15T01:51:57;3.00;99.90
25192;DHT22;13143;50.924;5.320;2024-01-15T01:54:25;3.00;99.90
25192;DHT22;13143;50.924;5.320;2024-01-15T01:56:51;3.00;99.90
25192;DHT22;13143;50.924;5.320;2024-01-15T01:59:17;3.00;99.90
25192;DHT22;13143;50.924;5.320;2024-01-15T02:01:44;3.00;99.90
25192;DHT22;13143;50.924;5.320;2024-01-15T02:04:11;3.00;99.90
25192;DHT22;13143;50.924;5.320;2024-01-15T02:06:37;3.00;99.90
25192;DHT22;13143;50.924;5.320;2024-01-15T02:09:03;3.00;99.90
25192;DHT22;13143;50.924;5.320;2024-01-15T02:11:31;3.00;99.90
25192;DHT22;13143;50.924;5.320;2024-01-15T02:13:57;3.00;99.90
25192;DHT22;13143;50.924;5.320;2024-01-15T02:16:22;3.00;99.90
25192;DHT22;13143;50.924;5.320;2024-01-15T02:18:48;3.00;99.90
25192;DHT22;13143;50.924;5.320;2024-01-15T02:21:15;3.00;99.90
25192;DHT22;13143;50.924;5.320;2024-01-15T02:23:41;3.00;99.90
25192;DHT22;13143;50.924;5.320;2024-01-15T02:26:07;3.00;99.90
25192;DHT22;13143;50.924;5.320;2024-01-15T02:28:33;3.00;99.90
25192;DHT22;13143;50.924;5.320;2024-01-15T02:30:59;3.10;99.90
25192;DHT22;13143;50.924;5.320;2024-01-15T02:33:25;3.10;99.90
25192;DHT22;13143;50.924;5.320;2024-01-15T02:35:51;3.10;99.90
25192;DHT22;13143;50.924;5.320;2024-01-15T02:38:16;3.10;99.90
25192;DHT22;13143;50.924;5.320;2024-01-15T02:40:45;3.10;99.90
25192;DHT22;13143;50.924;5.320;2024-01-15T02:43:11;3.10;99.90
25192;DHT22;13143;50.924;5.320;2024-01-15T02:45:37;3.10;99.90
25192;DHT22;13143;50.924;5.320;2024-01-15T02:48:03;3.10;99.90
25192;DHT22;13143;50.924;5.320;2024-01-15T02:50:28;3.10;99.90
25192;DHT22;13143;50.924;5.320;2024-01-15T02:52:54;3.10;99.90
25192;DHT22;13143;50.924;5.320;2024-01-15T02:55:20;3.10;99.90
25192;DHT22;13143;50.924;5.320;2024-01-15T02:57:46;3.10;99.90
25192;DHT22;13143;50.924;5.320;2024-01-15T03:00:12;3.10;99.90
25192;DHT22;13143;50.924;5.320;2024-01-15T03:02:38;3.10;99.90
25192;DHT22;13143;50.924;5.320;2024-01-15T03:05:10;3.10;99.90
25192;DHT22;13143;50.924;5.320;2024-01-15T03:07:36;3.10;99.90
25192;DHT22;13143;50.924;5.320;2024-01-15T03:10:02;3.10;99.90
25192;DHT22;13143;50.924;5.320;2024-01-15T03:12:28;3.10;99.90
25192;DHT22;13143;50.924;5.320;2024-01-15T03:14:54;3.10;99.90
25192;DHT22;13143;50.924;5.320;2024-01-15T03:17:19;3.10;99.90
25192;DHT22;13143;50.924;5.320;2024-01-15T03:19:45;3.10;99.90
25192;DHT22;13143;50.924;5.320;2024-01-15T03:22:11;3.10;99.90
25192;DHT22;13143;50.924;5.320;2024-01-15T03:24:36;3.10;99.90
25192;DHT22;13143;50.924;5.320;2024-01-15T03:27:02;3.10;99.90
25192;DHT22;13143;50.924;5.320;2024-01-15T03:29:28;3.20;99.90
25192;DHT22;13143;50.924;5.320;2024-01-15T03:31:54;3.20;99.90
25192;DHT22;13143;50.924;5.320;2024-01-15T03:34:20;3.20;99.90
25192;DHT22;13143;50.924;5.320;2024-01-15T03:36:45;3.20;99.90
25192;DHT22;13143;50.924;5.320;2024-01-15T03:39:11;3.10;99.90
25192;DHT22;13143;50.924;5.320;2024-01-15T03:41:37;3.20;99.90
25192;DHT22;13143;50.924;5.320;2024-01-15T03:44:03;3.20;99.90
25192;DHT22;13143;50.924;5.320;2024-01-15T03:46:28;3.20;99.90
25192;DHT22;13143;50.924;5.320;2024-01-15T03:48:54;3.20;99.90
25192;DHT22;13143;50.924;5.320;2024-01-15T03:51:20;3.20;99.90
25192;DHT22;13143;50.924;5.320;2024-01-15T03:53:46;3.20;99.90
25192;DHT22;13143;50.924;5.320;2024-01-15T03:56:12;3.20;99.90
25192;DHT22;13143;50.924;5.320;2024-01-15T03:58:37;3.20;99.90
25192;DHT22;13143;50.924;5.320;2024-01-15T04:01:03;3.20;99.90
25192;DHT22;13143;50.924;5.320;2024-01-15T04:03:29;3.20;99.90
25192;DHT22;13143;50.924;5.320;2024-01-15T04:05:54;3.20;99.90
25192;DHT22;13143;50.924;5.320;2024-01-15T04:08:20;3.20;99.90
25192;DHT22;13143;50.924;5.320;2024-01-15T04:10:46;3.20;99.90
25192;DHT22;13143;50.924;5.320;2024-01-15T04:13:12;3.20;99.90
25192;DHT22;13143;50.924;5.320;2024-01-15T04:15:37;3.20;99.90
25192;DHT22;13143;50.924;5.320;2024-01-15T04:18:03;3.20;99.90
25192;DHT22;13143;50.924;5.320;2024-01-15T04:20:29;3.20;99.90
25192;DHT22;13143;50.924;5.320;2024-01-15T04:22:55;3.20;99.90
25192;DHT22;13143;50.924;5.320;2024-01-15T04:25:20;3.20;99.90
25192;DHT22;13143;50.924;5.320;2024-01-15T04:27:46;3.20;99.90
25192;DHT22;13143;50.924;5.320;2024-01-15T04:30:12;3.20;99.90
25192;DHT22;13143;50.924;5.320;2024-01-15T04:32:38;3.20;99.90
25192;DHT22;13143;50.924;5.320;2024-01-15T04:35:04;3.20;99.90
25192;DHT22;13143;50.924;5.320;2024-01-15T04:37:29;3.20;99.90
25192;DHT22;13143;50.924;5.320;2024-01-15T04:39:55;3.20;99.90
25192;DHT22;13143;50.924;5.320;2024-01-15T04:42:23;3.20;99.90
25192;DHT22;13143;50.924;5.320;2024-01-15T04:44:48;3.20;99.90
25192;DHT22;13143;50.924;5.320;2024-01-15T04:47:14;3.20;99.90
25192;DHT22;13143;50.924;5.320;2024-01-15T04:49:40;3.20;99.90
25192;DHT22;13143;50.924;5.320;2024-01-15T04:52:06;3.20;99.90
25192;DHT22;13143;50.924;5.320;2024-01-15T04:54:31;3.30;99.90
25192;DHT22;13143;50.924;5.320;2024-01-15T04:56:57;3.20;99.90
25192;DHT22;13143;50.924;5.320;2024-01-15T04:59:23;3.20;99.90
25192;DHT22;13143;50.924;5.320;2024-01-15T05:01:49;3.20;99.90
25192;DHT22;13143;50.924;5.320;2024-01-15T05:04:15;3.30;99.90
25192;DHT22;13143;50.924;5.320;2024-01-15T05:06:40;3.20;99.90
25192;DHT22;13143;50.924;5.320;2024-01-15T05:09:06;3.30;99.90
25192;DHT22;13143;50.924;5.320;2024-01-15T05:11:32;3.20;99.90
25192;DHT22;13143;50.924;5.320;2024-01-15T05:13:58;3.20;99.90
25192;DHT22;13143;50.924;5.320;2024-01-15T05:16:24;3.30;99.90
25192;DHT22;13143;50.924;5.320;2024-01-15T05:18:49;3.30;99.90
25192;DHT22;13143;50.924;5.320;2024-01-15T05:21:15;3.30;99.90
25192;DHT22;13143;50.924;5.320;2024-01-15T05:23:41;3.30;99.90
25192;DHT22;13143;50.924;5.320;2024-01-15T05:26:07;3.30;99.90
25192;DHT22;13143;50.924;5.320;2024-01-15T05:28:34;3.20;99.90
25192;DHT22;13143;50.924;5.320;2024-01-15T05:31:01;3.30;99.90
25192;DHT22;13143;50.924;5.320;2024-01-15T05:33:27;3.20;99.90
25192;DHT22;13143;50.924;5.320;2024-01-15T05:35:52;3.20;99.90
25192;DHT22;13143;50.924;5.320;2024-01-15T05:38:19;3.30;99.90
25192;DHT22;13143;50.924;5.320;2024-01-15T05:40:45;3.20;99.90
25192;DHT22;13143;50.924;5.320;2024-01-15T05:43:10;3.20;99.90
25192;DHT22;13143;50.924;5.320;2024-01-15T05:45:38;3.30;99.90
25192;DHT22;13143;50.924;5.320;2024-01-15T05:48:04;3.20;99.90
25192;DHT22;13143;50.924;5.320;2024-01-15T05:50:30;3.20;99.90
25192;DHT22;13143;50.924;5.320;2024-01-15T05:52:55;3.20;99.90
25192;DHT22;13143;50.924;5.320;2024-01-15T05:55:21;3.20;99.90
25192;DHT22;13143;50.924;5.320;2024-01-15T05:57:46;3.20;99.90
25192;DHT22;13143;50.924;5.320;2024-01-15T06:00:12;3.20;99.90
25192;DHT22;13143;50.924;5.320;2024-01-15T06:02:38;3.20;99.90
25192;DHT22;13143;50.924;5.320;2024-01-15T06:05:05;3.20;99.90
25192;DHT22;13143;50.924;5.320;2024-01-15T06:07:31;3.20;99.90
25192;DHT22;13143;50.924;5.320;2024-01-15T06:09:57;3.20;99.90
25192;DHT22;13143;50.924;5.320;2024-01-15T06:12:23;3.20;99.90
25192;DHT22;13143;50.924;5.320;2024-01-15T06:14:49;3.20;99.90
25192;DHT22;13143;50.924;5.320;2024-01-15T06:17:14;3.20;99.90
25192;DHT22;13143;50.924;5.320;2024-01-15T06:19:40;3.20;99.90
25192;DHT22;13143;50.924;5.320;2024-01-15T06:22:06;3.20;99.90
25192;DHT22;13143;50.924;5.320;2024-01-15T06:24:31;3.20;99.90
25192;DHT22;13143;50.924;5.320;2024-01-15T06:26:57;3.20;99.90
25192;DHT22;13143;50.924;5.320;2024-01-15T06:29:25;3.20;99.90
25192;DHT22;13143;50.924;5.320;2024-01-15T06:31:51;3.20;99.90
25192;DHT22;13143;50.924;5.320;2024-01-15T06:34:17;3.20;99.90
25192;DHT22;13143;50.924;5.320;2024-01-15T06:36:43;3.20;99.90
25192;DHT22;13143;50.924;5.320;2024-01-15T06:39:08;3.20;99.90
25192;DHT22;13143;50.924;5.320;2024-01-15T06:41:35;3.20;99.90
25192;DHT22;13143;50.924;5.320;2024-01-15T06:44:07;3.10;99.90
25192;DHT22;13143;50.924;5.320;2024-01-15T06:46:32;3.10;99.90
25192;DHT22;13143;50.924;5.320;2024-01-15T06:48:58;3.20;99.90
25192;DHT22;13143;50.924;5.320;2024-01-15T06:51:24;3.20;99.90
25192;DHT22;13143;50.924;5.320;2024-01-15T06:53:49;3.20;99.90
25192;DHT22;13143;50.924;5.320;2024-01-15T06:56:15;3.20;99.90
25192;DHT22;13143;50.924;5.320;2024-01-15T06:58:41;3.20;99.90
25192;DHT22;13143;50.924;5.320;2024-01-15T07:01:06;3.10;99.90
25192;DHT22;13143;50.924;5.320;2024-01-15T07:03:33;3.10;99.90
25192;DHT22;13143;50.924;5.320;2024-01-15T07:05:59;3.10;99.90
25192;DHT22;13143;50.924;5.320;2024-01-15T07:08:25;3.10;99.90
25192;DHT22;13143;50.924;5.320;2024-01-15T07:10:50;3.10;99.90
25192;DHT22;13143;50.924;5.320;2024-01-15T07:13:16;3.10;99.90
25192;DHT22;13143;50.924;5.320;2024-01-15T07:15:42;3.10;99.90
25192;DHT22;13143;50.924;5.320;2024-01-15T07:18:07;3.10;99.90
25192;DHT22;13143;50.924;5.320;2024-01-15T07:20:33;3.10;99.90
25192;DHT22;13143;50.924;5.320;2024-01-15T07:22:59;3.10;99.90
25192;DHT22;13143;50.924;5.320;2024-01-15T07:25:25;3.10;99.90
25192;DHT22;13143;50.924;5.320;2024-01-15T07:27:51;3.10;99.90
25192;DHT22;13143;50.924;5.320;2024-01-15T07:30:19;3.10;99.90
25192;DHT22;13143;50.924;5.320;2024-01-15T07:32:47;3.10;99.90
25192;DHT22;13143;50.924;5.320;2024-01-15T07:35:17;3.10;99.90
25192;DHT22;13143;50.924;5.320;2024-01-15T07:37:42;3.10;99.90
25192;DHT22;13143;50.924;5.320;2024-01-15T07:40:08;3.10;99.90
25192;DHT22;13143;50.924;5.320;2024-01-15T07:42:35;3.10;99.90
25192;DHT22;13143;50.924;5.320;2024-01-15T07:45:01;3.10;99.90
25192;DHT22;13143;50.924;5.320;2024-01-15T07:47:27;3.10;99.90
25192;DHT22;13143;50.924;5.320;2024-01-15T07:49:53;3.10;99.90
25192;DHT22;13143;50.924;5.320;2024-01-15T07:52:19;3.10;99.90
25192;DHT22;13143;50.924;5.320;2024-01-15T07:54:45;3.10;99.90
25192;DHT22;13143;50.924;5.320;2024-01-15T07:57:11;3.10;99.90
25192;DHT22;13143;50.924;5.320;2024-01-15T07:59:36;3.10;99.90
25192;DHT22;13143;50.924;5.320;2024-01-15T08:02:02;3.10;99.90
25192;DHT22;13143;50.924;5.320;2024-01-15T08:04:28;3.10;99.90
25192;DHT22;13143;50.924;5.320;2024-01-15T08:06:54;3.10;99.90
25192;DHT22;13143;50.924;5.320;2024-01-15T08:09:20;3.10;99.90
25192;DHT22;13143;50.924;5.320;2024-01-15T08:11:46;3.20;99.90
25192;DHT22;13143;50.924;5.320;2024-01-15T08:14:12;3.20;99.90
25192;DHT22;13143;50.924;5.320;2024-01-15T08:16:38;3.20;99.90
25192;DHT22;13143;50.924;5.320;2024-01-15T08:19:04;3.20;99.90
25192;DHT22;13143;50.924;5.320;2024-01-15T08:21:30;3.20;99.90
25192;DHT22;13143;50.924;5.320;2024-01-15T08:23:58;3.20;99.90
25192;DHT22;13143;50.924;5.320;2024-01-15T08:26:24;3.20;99.90
25192;DHT22;13143;50.924;5.320;2024-01-15T08:28:50;3.20;99.90
25192;DHT22;13143;50.924;5.320;2024-01-15T08:31:15;3.20;99.90
25192;DHT22;13143;50.924;5.320;2024-01-15T08:33:41;3.20;99.90
25192;DHT22;13143;50.924;5.320;2024-01-15T08:36:07;3.20;99.90
25192;DHT22;13143;50.924;5.320;2024-01-15T08:38:33;3.20;99.90
25192;DHT22;13143;50.924;5.320;2024-01-15T08:40:58;3.20;99.90
25192;DHT22;13143;50.924;5.320;2024-01-15T08:43:26;3.20;99.90
25192;DHT22;13143;50.924;5.320;2024-01-15T08:45:52;3.20;99.90
25192;DHT22;13143;50.924;5.320;2024-01-15T08:48:18;3.20;99.90
25192;DHT22;13143;50.924;5.320;2024-01-15T08:50:43;3.20;99.90
25192;DHT22;13143;50.924;5.320;2024-01-15T08:53:12;3.20;99.90
25192;DHT22;13143;50.924;5.320;2024-01-15T08:55:38;3.20;99.90
25192;DHT22;13143;50.924;5.320;2024-01-15T08:58:04;3.30;99.90
25192;DHT22;13143;50.924;5.320;2024-01-15T09:00:31;3.20;99.90
25192;DHT22;13143;50.924;5.320;2024-01-15T09:02:57;3.30;99.90
25192;DHT22;13143;50.924;5.320;2024-01-15T09:05:23;3.30;99.90
25192;DHT22;13143;50.924;5.320;2024-01-15T09:07:49;3.30;99.90
25192;DHT22;13143;50.924;5.320;2024-01-15T09:10:17;3.20;99.90
25192;DHT22;13143;50.924;5.320;2024-01-15T09:12:43;3.30;99.90
25192;DHT22;13143;50.924;5.320;2024-01-15T09:15:09;3.30;99.90
25192;DHT22;13143;50.924;5.320;2024-01-15T09:17:35;3.30;99.90
25192;DHT22;13143;50.924;5.320;2024-01-15T09:20:00;3.30;99.90
25192;DHT22;13143;50.924;5.320;2024-01-15T09:22:26;3.30;99.90
25192;DHT22;13143;50.924;5.320;2024-01-15T09:24:52;3.30;99.90
25192;DHT22;13143;50.924;5.320;2024-01-15T09:27:18;3.30;99.90
25192;DHT22;13143;50.924;5.320;2024-01-15T09:29:44;3.30;99.90
25192;DHT22;13143;50.924;5.320;2024-01-15T09:32:12;3.30;99.90
25192;DHT22;13143;50.924;5.320;2024-01-15T09:34:38;3.30;99.90
25192;DHT22;13143;50.924;5.320;2024-01-15T09:37:04;3.30;99.90
25192;DHT22;13143;50.924;5.320;2024-01-15T09:39:30;3.30;99.90
25192;DHT22;13143;50.924;5.320;2024-01-15T09:41:56;3.30;99.90
25192;DHT22;13143;50.924;5.320;2024-01-15T09:44:23;3.30;99.90
25192;DHT22;13143;50.924;5.320;2024-01-15T09:46:49;3.30;99.90
25192;DHT22;13143;50.924;5.320;2024-01-15T09:49:18;3.30;99.90
25192;DHT22;13143;50.924;5.320;2024-01-15T09:51:45;3.30;99.90
25192;DHT22;13143;50.924;5.320;2024-01-15T09:54:11;3.30;99.90
25192;DHT22;13143;50.924;5.320;2024-01-15T09:56:39;3.30;99.90
25192;DHT22;13143;50.924;5.320;2024-01-15T09:59:05;3.30;99.90
25192;DHT22;13143;50.924;5.320;2024-01-15T10:01:32;3.30;99.90
25192;DHT22;13143;50.924;5.320;2024-01-15T10:03:58;3.30;99.90
25192;DHT22;13143;50.924;5.320;2024-01-15T10:06:27;3.40;99.90
25192;DHT22;13143;50.924;5.320;2024-01-15T10:08:56;3.40;99.90
25192;DHT22;13143;50.924;5.320;2024-01-15T10:11:26;3.30;99.90
25192;DHT22;13143;50.924;5.320;2024-01-15T10:13:52;3.30;99.90
25192;DHT22;13143;50.924;5.320;2024-01-15T10:16:19;3.40;99.90
25192;DHT22;13143;50.924;5.320;2024-01-15T10:18:45;3.40;99.90
25192;DHT22;13143;50.924;5.320;2024-01-15T10:21:11;3.40;99.90
25192;DHT22;13143;50.924;5.320;2024-01-15T10:23:36;3.40;99.90
25192;DHT22;13143;50.924;5.320;2024-01-15T10:26:03;3.40;99.90
25192;DHT22;13143;50.924;5.320;2024-01-15T10:28:30;3.40;99.90
25192;DHT22;13143;50.924;5.320;2024-01-15T10:30:58;3.40;99.90
25192;DHT22;13143;50.924;5.320;2024-01-15T10:33:27;3.40;99.90
25192;DHT22;13143;50.924;5.320;2024-01-15T10:35:58;3.40;99.90
25192;DHT22;13143;50.924;5.320;2024-01-15T10:38:25;3.40;99.90
25192;DHT22;13143;50.924;5.320;2024-01-15T10:40:52;3.40;99.90
25192;DHT22;13143;50.924;5.320;2024-01-15T10:43:18;3.50;99.90
25192;DHT22;13143;50.924;5.320;2024-01-15T10:45:52;3.50;99.90
25192;DHT22;13143;50.924;5.320;2024-01-15T10:48:19;3.50;99.90
25192;DHT22;13143;50.924;5.320;2024-01-15T10:50:46;3.50;99.90
25192;DHT22;13143;50.924;5.320;2024-01-15T10:53:14;3.50;99.90
25192;DHT22;13143;50.924;5.320;2024-01-15T10:55:41;3.50;99.90
25192;DHT22;13143;50.924;5.320;2024-01-15T10:58:08;3.50;99.90
25192;DHT22;13143;50.924;5.320;2024-01-15T11:00:35;3.60;99.90
25192;DHT22;13143;50.924;5.320;2024-01-15T11:03:03;3.60;99.90
25192;DHT22;13143;50.924;5.320;2024-01-15T11:05:51;3.60;99.90
25192;DHT22;13143;50.924;5.320;2024-01-15T11:08:18;3.70;99.90
25192;DHT22;13143;50.924;5.320;2024-01-15T11:10:50;3.70;99.90
25192;DHT22;13143;50.924;5.320;2024-01-15T11:23:49;3.80;99.90
25192;DHT22;13143;50.924;5.320;2024-01-15T11:29:02;3.80;99.90
25192;DHT22;13143;50.924;5.320;2024-01-15T11:34:10;3.90;99.90
25192;DHT22;13143;50.924;5.320;2024-01-15T11:42:03;3.90;99.90
25192;DHT22;13143;50.924;5.320;2024-01-15T11:44:29;3.90;99.90
25192;DHT22;13143;50.924;5.320;2024-01-15T11:47:11;4.00;99.90
25192;DHT22;13143;50.924;5.320;2024-01-15T11:52:23;4.00;99.90
25192;DHT22;13143;50.924;5.320;2024-01-15T11:55:19;3.90;99.90
25192;DHT22;13143;50.924;5.320;2024-01-15T11:57:54;3.90;99.90
25192;DHT22;13143;50.924;5.320;2024-01-15T12:00:20;3.90;99.90
25192;DHT22;13143;50.924;5.320;2024-01-15T12:02:48;3.90;99.90
25192;DHT22;13143;50.924;5.320;2024-01-15T12:05:16;3.90;99.90
25192;DHT22;13143;50.924;5.320;2024-01-15T12:07:43;3.90;99.90
25192;DHT22;13143;50.924;5.320;2024-01-15T12:10:16;3.90;99.90
25192;DHT22;13143;50.924;5.320;2024-01-15T12:15:18;3.90;99.90
25192;DHT22;13143;50.924;5.320;2024-01-15T12:17:43;3.90;99.90
25192;DHT22;13143;50.924;5.320;2024-01-15T12:20:11;3.90;99.90
25192;DHT22;13143;50.924;5.320;2024-01-15T12:22:38;3.90;99.90
25192;DHT22;13143;50.924;5.320;2024-01-15T12:25:04;3.90;99.90
25192;DHT22;13143;50.924;5.320;2024-01-15T12:27:30;3.90;99.90
25192;DHT22;13143;50.924;5.320;2024-01-15T12:29:56;3.90;99.90
25192;DHT22;13143;50.924;5.320;2024-01-15T12:32:22;3.90;99.90
25192;DHT22;13143;50.924;5.320;2024-01-15T12:34:49;3.90;99.90
25192;DHT22;13143;50.924;5.320;2024-01-15T12:37:18;3.90;99.90
25192;DHT22;13143;50.924;5.320;2024-01-15T12:39:44;3.90;99.90
25192;DHT22;13143;50.924;5.320;2024-01-15T12:42:10;3.90;99.90
25192;DHT22;13143;50.924;5.320;2024-01-15T12:44:36;3.80;99.90
25192;DHT22;13143;50.924;5.320;2024-01-15T12:47:05;3.90;99.90
25192;DHT22;13143;50.924;5.320;2024-01-15T12:49:31;3.90;99.90
25192;DHT22;13143;50.924;5.320;2024-01-15T12:51:57;3.90;99.90
25192;DHT22;13143;50.924;5.320;2024-01-15T12:54:24;3.90;99.90
25192;DHT22;13143;50.924;5.320;2024-01-15T12:56:50;3.80;99.90
25192;DHT22;13143;50.924;5.320;2024-01-15T12:59:17;3.80;99.90
25192;DHT22;13143;50.924;5.320;2024-01-15T13:01:43;3.80;99.90
25192;DHT22;13143;50.924;5.320;2024-01-15T13:04:09;3.80;99.90
25192;DHT22;13143;50.924;5.320;2024-01-15T13:06:35;3.80;99.90
25192;DHT22;13143;50.924;5.320;2024-01-15T13:09:02;3.80;99.90
25192;DHT22;13143;50.924;5.320;2024-01-15T13:11:31;3.90;99.90
25192;DHT22;13143;50.924;5.320;2024-01-15T13:13:57;3.80;99.90
25192;DHT22;13143;50.924;5.320;2024-01-15T13:16:22;3.80;99.90
25192;DHT22;13143;50.924;5.320;2024-01-15T13:18:48;3.80;99.90
25192;DHT22;13143;50.924;5.320;2024-01-15T13:21:15;3.80;99.90
25192;DHT22;13143;50.924;5.320;2024-01-15T13:23:41;3.80;99.90
25192;DHT22;13143;50.924;5.320;2024-01-15T13:26:07;3.80;99.90
25192;DHT22;13143;50.924;5.320;2024-01-15T13:28:33;3.80;99.90
25192;DHT22;13143;50.924;5.320;2024-01-15T13:31:00;3.80;99.90
25192;DHT22;13143;50.924;5.320;2024-01-15T13:33:26;3.80;99.90
25192;DHT22;13143;50.924;5.320;2024-01-15T13:35:51;3.80;99.90
25192;DHT22;13143;50.924;5.320;2024-01-15T13:38:17;3.80;99.90
25192;DHT22;13143;50.924;5.320;2024-01-15T13:40:43;3.70;99.90
25192;DHT22;13143;50.924;5.320;2024-01-15T13:43:11;3.80;99.90
25192;DHT22;13143;50.924;5.320;2024-01-15T13:45:37;3.80;99.90
25192;DHT22;13143;50.924;5.320;2024-01-15T13:48:04;3.80;99.90
25192;DHT22;13143;50.924;5.320;2024-01-15T13:50:34;3.70;99.90
25192;DHT22;13143;50.924;5.320;2024-01-15T13:53:01;3.70;99.90
25192;DHT22;13143;50.924;5.320;2024-01-15T13:55:27;3.70;99.90
25192;DHT22;13143;50.924;5.320;2024-01-15T13:57:54;3.70;99.90
25192;DHT22;13143;50.924;5.320;2024-01-15T14:00:20;3.70;99.90
25192;DHT22;13143;50.924;5.320;2024-01-15T14:02:47;3.70;99.90
25192;DHT22;13143;50.924;5.320;2024-01-15T14:05:13;3.70;99.90
25192;DHT22;13143;50.924;5.320;2024-01-15T14:07:39;3.80;99.90
25192;DHT22;13143;50.924;5.320;2024-01-15T14:10:06;3.70;99.90
25192;DHT22;13143;50.924;5.320;2024-01-15T14:12:33;3.70;99.90
25192;DHT22;13143;50.924;5.320;2024-01-15T14:15:00;3.70;99.90
25192;DHT22;13143;50.924;5.320;2024-01-15T14:17:27;3.70;99.90
25192;DHT22;13143;50.924;5.320;2024-01-15T14:19:52;3.70;99.90
25192;DHT22;13143;50.924;5.320;2024-01-15T14:22:18;3.70;99.90
25192;DHT22;13143;50.924;5.320;2024-01-15T14:24:44;3.70;99.90
25192;DHT22;13143;50.924;5.320;2024-01-15T14:27:10;3.70;99.90
25192;DHT22;13143;50.924;5.320;2024-01-15T14:29:36;3.70;99.90
25192;DHT22;13143;50.924;5.320;2024-01-15T14:32:02;3.70;99.90
25192;DHT22;13143;50.924;5.320;2024-01-15T14:34:28;3.70;99.90
25192;DHT22;13143;50.924;5.320;2024-01-15T14:36:53;3.70;99.90
25192;DHT22;13143;50.924;5.320;2024-01-15T14:39:21;3.70;99.90
25192;DHT22;13143;50.924;5.320;2024-01-15T14:41:46;3.70;99.90
25192;DHT22;13143;50.924;5.320;2024-01-15T14:44:12;3.70;99.90
25192;DHT22;13143;50.924;5.320;2024-01-15T14:46:39;3.70;99.90
25192;DHT22;13143;50.924;5.320;2024-01-15T14:49:05;3.70;99.90
25192;DHT22;13143;50.924;5.320;2024-01-15T14:51:31;3.70;99.90
25192;DHT22;13143;50.924;5.320;2024-01-15T14:53:57;3.70;99.90
25192;DHT22;13143;50.924;5.320;2024-01-15T14:56:23;3.70;99.90
25192;DHT22;13143;50.924;5.320;2024-01-15T14:58:49;3.70;99.90
25192;DHT22;13143;50.924;5.320;2024-01-15T15:01:15;3.60;99.90
25192;DHT22;13143;50.924;5.320;2024-01-15T15:03:40;3.60;99.90
25192;DHT22;13143;50.924;5.320;2024-01-15T15:06:06;3.70;99.90
25192;DHT22;13143;50.924;5.320;2024-01-15T15:08:38;3.60;99.90
25192;DHT22;13143;50.924;5.320;2024-01-15T15:11:04;3.60;99.90
25192;DHT22;13143;50.924;5.320;2024-01-15T15:13:30;3.60;99.90
25192;DHT22;13143;50.924;5.320;2024-01-15T15:15:56;3.70;99.90
25192;DHT22;13143;50.924;5.320;2024-01-15T15:18:21;3.60;99.90
25192;DHT22;13143;50.924;5.320;2024-01-15T15:20:48;3.60;99.90
25192;DHT22;13143;50.924;5.320;2024-01-15T15:23:15;3.60;99.90
25192;DHT22;13143;50.924;5.320;2024-01-15T15:25:41;3.60;99.90
25192;DHT22;13143;50.924;5.320;2024-01-15T15:28:08;3.60;99.90
25192;DHT22;13143;50.924;5.320;2024-01-15T15:30:35;3.60;99.90
25192;DHT22;13143;50.924;5.320;2024-01-15T15:33:01;3.60;99.90
25192;DHT22;13143;50.924;5.320;2024-01-15T15:35:26;3.60;99.90
25192;DHT22;13143;50.924;5.320;2024-01-15T15:37:52;3.60;99.90
25192;DHT22;13143;50.924;5.320;2024-01-15T15:40:18;3.60;99.90
25192;DHT22;13143;50.924;5.320;2024-01-15T15:42:43;3.60;99.90
25192;DHT22;13143;50.924;5.320;2024-01-15T15:45:09;3.60;99.90
25192;DHT22;13143;50.924;5.320;2024-01-15T15:47:35;3.60;99.90
25192;DHT22;13143;50.924;5.320;2024-01-15T15:50:01;3.60;99.90
25192;DHT22;13143;50.924;5.320;2024-01-15T15:52:27;3.60;99.90
25192;DHT22;13143;50.924;5.320;2024-01-15T15:54:53;3.60;99.90
25192;DHT22;13143;50.924;5.320;2024-01-15T15:57:19;3.60;99.90
25192;DHT22;13143;50.924;5.320;2024-01-15T15:59:45;3.50;99.90
25192;DHT22;13143;50.924;5.320;2024-01-15T16:02:10;3.50;99.90
25192;DHT22;13143;50.924;5.320;2024-01-15T16:04:36;3.60;99.90
25192;DHT22;13143;50.924;5.320;2024-01-15T16:07:02;3.50;99.90